sensor_id;sensor_type;location;lat;lon;timestamp;P1;durP1;ratioP1;P2;durP2;ratioP2
1682;SDS011;13252;53.596;10.060;2023-05-10T00:00:22;7.63;;;4.53;;
1682;SDS011;13252;53.596;10.060;2023-05-10T00:02:50;8.63;;;3.77;;
1682;SDS011;13252;53.596;10.060;2023-05-10T00:05:19;10.80;;;4.17;;
1682;SDS011;13252;53.596;10.060;2023-05-10T00:07:47;6.37;;;4.00;;
1682;SDS011;13252;53.596;10.060;2023-05-10T00:10:15;7.00;;;3.70;;
1682;SDS011;13252;53.596;10.060;2023-05-10T00:12:43;7.03;;;4.10;;
1682;SDS011;13252;53.596;10.060;2023-05-10T00:15:11;7.60;;;3.93;;
1682;SDS011;13252;53.596;10.060;2023-05-10T00:17:38;5.33;;;3.30;;
1682;SDS011;13252;53.596;10.060;2023-05-10T00:20:07;6.00;;;3.83;;
1682;SDS011;13252;53.596;10.060;2023-05-10T00:22:36;7.63;;;3.83;;
1682;SDS011;13252;53.596;10.060;2023-05-10T00:25:04;4.90;;;3.47;;
1682;SDS011;13252;53.596;10.060;2023-05-10T00:27:33;15.20;;;4.17;;
1682;SDS011;13252;53.596;10.060;2023-05-10T00:30:01;7.10;;;4.20;;
1682;SDS011;13252;53.596;10.060;2023-05-10T00:32:29;15.40;;;4.20;;
1682;SDS011;13252;53.596;10.060;2023-05-10T00:34:57;7.97;;;3.77;;
1682;SDS011;13252;53.596;10.060;2023-05-10T00:37:25;11.03;;;4.47;;
1682;SDS011;13252;53.596;10.060;2023-05-10T00:39:55;5.07;;;3.70;;
1682;SDS011;13252;53.596;10.060;2023-05-10T00:42:23;6.50;;;4.27;;
1682;SDS011;13252;53.596;10.060;2023-05-10T00:44:52;6.50;;;3.60;;
1682;SDS011;13252;53.596;10.060;2023-05-10T00:47:20;7.87;;;3.97;;
1682;SDS011;13252;53.596;10.060;2023-05-10T00:49:48;8.47;;;4.30;;
1682;SDS011;13252;53.596;10.060;2023-05-10T00:52:15;9.80;;;3.70;;
1682;SDS011;13252;53.596;10.060;2023-05-10T00:54:43;7.40;;;4.00;;
1682;SDS011;13252;53.596;10.060;2023-05-10T00:57:13;10.43;;;3.87;;
1682;SDS011;13252;53.596;10.060;2023-05-10T00:59:41;5.60;;;3.73;;
1682;SDS011;13252;53.596;10.060;2023-05-10T01:02:08;10.50;;;4.63;;
1682;SDS011;13252;53.596;10.060;2023-05-10T01:04:36;10.67;;;4.20;;
1682;SDS011;13252;53.596;10.060;2023-05-10T01:07:05;12.67;;;5.33;;
1682;SDS011;13252;53.596;10.060;2023-05-10T01:09:33;5.20;;;4.00;;
1682;SDS011;13252;53.596;10.060;2023-05-10T01:12:01;4.90;;;3.77;;
1682;SDS011;13252;53.596;10.060;2023-05-10T01:14:32;6.23;;;4.10;;
1682;SDS011;13252;53.596;10.060;2023-05-10T01:17:00;9.70;;;4.90;;
1682;SDS011;13252;53.596;10.060;2023-05-10T01:19:29;7.27;;;3.60;;
1682;SDS011;13252;53.596;10.060;2023-05-10T01:22:00;8.27;;;4.37;;
1682;SDS011;13252;53.596;10.060;2023-05-10T01:24:38;6.43;;;3.60;;
1682;SDS011;13252;53.596;10.060;2023-05-10T01:30:25;10.30;;;4.00;;
1682;SDS011;13252;53.596;10.060;2023-05-10T01:33:06;8.30;;;4.20;;
1682;SDS011;13252;53.596;10.060;2023-05-10T01:35:39;10.13;;;4.33;;
1682;SDS011;13252;53.596;10.060;2023-05-10T01:38:11;13.33;;;4.30;;
1682;SDS011;13252;53.596;10.060;2023-05-10T01:40:46;6.40;;;4.40;;
1682;SDS011;13252;53.596;10.060;2023-05-10T01:43:19;5.83;;;3.93;;
1682;SDS011;13252;53.596;10.060;2023-05-10T01:45:54;7.90;;;3.90;;
1682;SDS011;13252;53.596;10.060;2023-05-10T01:48:28;7.77;;;3.67;;
1682;SDS011;13252;53.596;10.060;2023-05-10T01:50:56;5.97;;;4.33;;
1682;SDS011;13252;53.596;10.060;2023-05-10T01:53:25;9.53;;;4.40;;
1682;SDS011;13252;53.596;10.060;2023-05-10T01:55:53;7.10;;;4.57;;
1682;SDS011;13252;53.596;10.060;2023-05-10T01:58:25;7.00;;;4.50;;
1682;SDS011;13252;53.596;10.060;2023-05-10T02:00:55;7.80;;;4.63;;
1682;SDS011;13252;53.596;10.060;2023-05-10T02:03:24;6.00;;;3.83;;
1682;SDS011;13252;53.596;10.060;2023-05-10T02:05:54;7.93;;;4.60;;
1682;SDS011;13252;53.596;10.060;2023-05-10T02:08:24;5.60;;;4.07;;
1682;SDS011;13252;53.596;10.060;2023-05-10T02:10:53;7.20;;;3.80;;
1682;SDS011;13252;53.596;10.060;2023-05-10T02:13:23;6.43;;;4.50;;
1682;SDS011;13252;53.596;10.060;2023-05-10T02:15:52;5.13;;;4.00;;
1682;SDS011;13252;53.596;10.060;2023-05-10T02:18:23;7.30;;;3.60;;
1682;SDS011;13252;53.596;10.060;2023-05-10T02:20:51;5.60;;;4.00;;
1682;SDS011;13252;53.596;10.060;2023-05-10T02:23:22;8.23;;;4.23;;
1682;SDS011;13252;53.596;10.060;2023-05-10T02:25:50;6.07;;;4.20;;
1682;SDS011;13252;53.596;10.060;2023-05-10T02:28:19;6.60;;;3.33;;
1682;SDS011;13252;53.596;10.060;2023-05-10T02:30:48;7.43;;;4.50;;
1682;SDS011;13252;53.596;10.060;2023-05-10T02:33:16;16.00;;;4.70;;
1682;SDS011;13252;53.596;10.060;2023-05-10T02:35:44;7.07;;;4.10;;
1682;SDS011;13252;53.596;10.060;2023-05-10T02:38:14;12.63;;;4.70;;
1682;SDS011;13252;53.596;10.060;2023-05-10T02:40:42;7.13;;;4.20;;
1682;SDS011;13252;53.596;10.060;2023-05-10T02:43:11;6.63;;;3.90;;
1682;SDS011;13252;53.596;10.060;2023-05-10T02:45:40;7.00;;;4.60;;
1682;SDS011;13252;53.596;10.060;2023-05-10T02:48:10;7.13;;;4.50;;
1682;SDS011;13252;53.596;10.060;2023-05-10T02:50:38;8.13;;;3.83;;
1682;SDS011;13252;53.596;10.060;2023-05-10T02:53:09;6.23;;;4.43;;
1682;SDS011;13252;53.596;10.060;2023-05-10T02:55:40;6.67;;;4.10;;
1682;SDS011;13252;53.596;10.060;2023-05-10T02:58:08;11.43;;;3.73;;
1682;SDS011;13252;53.596;10.060;2023-05-10T03:00:36;5.10;;;3.90;;
1682;SDS011;13252;53.596;10.060;2023-05-10T03:03:03;8.20;;;4.47;;
1682;SDS011;13252;53.596;10.060;2023-05-10T03:05:32;6.70;;;4.10;;
1682;SDS011;13252;53.596;10.060;2023-05-10T03:08:02;6.90;;;4.37;;
1682;SDS011;13252;53.596;10.060;2023-05-10T03:10:31;11.03;;;4.43;;
1682;SDS011;13252;53.596;10.060;2023-05-10T03:13:07;7.40;;;4.30;;
1682;SDS011;13252;53.596;10.060;2023-05-10T03:15:42;7.23;;;4.53;;
1682;SDS011;13252;53.596;10.060;2023-05-10T03:18:15;10.90;;;4.23;;
1682;SDS011;13252;53.596;10.060;2023-05-10T03:20:47;6.90;;;4.60;;
1682;SDS011;13252;53.596;10.060;2023-05-10T03:23:19;5.37;;;4.40;;
1682;SDS011;13252;53.596;10.060;2023-05-10T03:25:49;7.20;;;4.30;;
1682;SDS011;13252;53.596;10.060;2023-05-10T03:28:19;10.60;;;3.93;;
1682;SDS011;13252;53.596;10.060;2023-05-10T03:30:47;10.00;;;4.37;;
1682;SDS011;13252;53.596;10.060;2023-05-10T03:33:16;5.53;;;4.33;;
1682;SDS011;13252;53.596;10.060;2023-05-10T03:35:45;7.53;;;4.47;;
1682;SDS011;13252;53.596;10.060;2023-05-10T03:38:14;8.63;;;4.30;;
1682;SDS011;13252;53.596;10.060;2023-05-10T03:40:42;7.47;;;4.33;;
1682;SDS011;13252;53.596;10.060;2023-05-10T03:43:10;8.90;;;4.27;;
1682;SDS011;13252;53.596;10.060;2023-05-10T03:45:39;6.30;;;4.43;;
1682;SDS011;13252;53.596;10.060;2023-05-10T03:48:06;7.03;;;4.60;;
1682;SDS011;13252;53.596;10.060;2023-05-10T03:50:34;7.93;;;4.20;;
1682;SDS011;13252;53.596;10.060;2023-05-10T03:53:03;6.57;;;4.47;;
1682;SDS011;13252;53.596;10.060;2023-05-10T03:55:31;7.20;;;4.93;;
1682;SDS011;13252;53.596;10.060;2023-05-10T03:58:02;5.57;;;4.73;;
1682;SDS011;13252;53.596;10.060;2023-05-10T04:00:31;7.93;;;4.07;;
1682;SDS011;13252;53.596;10.060;2023-05-10T04:03:00;8.60;;;4.93;;
1682;SDS011;13252;53.596;10.060;2023-05-10T04:05:28;11.10;;;4.53;;
1682;SDS011;13252;53.596;10.060;2023-05-10T04:07:56;6.17;;;4.70;;
1682;SDS011;13252;53.596;10.060;2023-05-10T04:10:24;4.93;;;3.90;;
1682;SDS011;13252;53.596;10.060;2023-05-10T04:12:51;6.77;;;3.93;;
1682;SDS011;13252;53.596;10.060;2023-05-10T04:15:19;19.30;;;4.90;;
1682;SDS011;13252;53.596;10.060;2023-05-10T04:17:47;11.73;;;4.90;;
1682;SDS011;13252;53.596;10.060;2023-05-10T04:20:16;9.90;;;4.17;;
1682;SDS011;13252;53.596;10.060;2023-05-10T04:22:44;8.70;;;4.80;;
1682;SDS011;13252;53.596;10.060;2023-05-10T04:25:12;5.87;;;4.00;;
1682;SDS011;13252;53.596;10.060;2023-05-10T04:27:40;8.10;;;4.40;;
1682;SDS011;13252;53.596;10.060;2023-05-10T04:30:08;6.40;;;4.73;;
1682;SDS011;13252;53.596;10.060;2023-05-10T04:32:36;7.33;;;4.43;;
1682;SDS011;13252;53.596;10.060;2023-05-10T04:35:04;9.60;;;5.37;;
1682;SDS011;13252;53.596;10.060;2023-05-10T04:37:34;8.70;;;5.10;;
1682;SDS011;13252;53.596;10.060;2023-05-10T04:40:02;7.33;;;4.73;;
1682;SDS011;13252;53.596;10.060;2023-05-10T04:42:31;21.00;;;5.03;;
1682;SDS011;13252;53.596;10.060;2023-05-10T04:44:59;8.50;;;5.30;;
1682;SDS011;13252;53.596;10.060;2023-05-10T04:47:27;8.13;;;5.27;;
1682;SDS011;13252;53.596;10.060;2023-05-10T04:49:55;8.87;;;4.07;;
1682;SDS011;13252;53.596;10.060;2023-05-10T04:52:23;15.67;;;11.60;;
1682;SDS011;13252;53.596;10.060;2023-05-10T04:54:52;9.90;;;5.27;;
1682;SDS011;13252;53.596;10.060;2023-05-10T04:57:19;9.03;;;5.17;;
1682;SDS011;13252;53.596;10.060;2023-05-10T04:59:47;7.07;;;5.40;;
1682;SDS011;13252;53.596;10.060;2023-05-10T05:02:16;10.63;;;4.30;;
1682;SDS011;13252;53.596;10.060;2023-05-10T05:04:43;6.47;;;4.70;;
1682;SDS011;13252;53.596;10.060;2023-05-10T05:07:11;6.70;;;4.63;;
1682;SDS011;13252;53.596;10.060;2023-05-10T05:09:39;10.20;;;4.80;;
1682;SDS011;13252;53.596;10.060;2023-05-10T05:12:08;6.60;;;4.53;;
1682;SDS011;13252;53.596;10.060;2023-05-10T05:14:40;9.30;;;5.27;;
1682;SDS011;13252;53.596;10.060;2023-05-10T05:17:08;6.13;;;4.90;;
1682;SDS011;13252;53.596;10.060;2023-05-10T05:19:36;5.77;;;4.50;;
1682;SDS011;13252;53.596;10.060;2023-05-10T05:22:03;6.70;;;4.87;;
1682;SDS011;13252;53.596;10.060;2023-05-10T05:24:34;8.10;;;5.80;;
1682;SDS011;13252;53.596;10.060;2023-05-10T05:27:03;6.53;;;5.10;;
1682;SDS011;13252;53.596;10.060;2023-05-10T05:29:33;6.90;;;5.37;;
1682;SDS011;13252;53.596;10.060;2023-05-10T05:32:01;12.47;;;5.57;;
1682;SDS011;13252;53.596;10.060;2023-05-10T05:34:29;12.23;;;4.20;;
1682;SDS011;13252;53.596;10.060;2023-05-10T05:36:57;8.07;;;5.10;;
1682;SDS011;13252;53.596;10.060;2023-05-10T05:39:25;12.23;;;4.90;;
1682;SDS011;13252;53.596;10.060;2023-05-10T05:41:52;10.37;;;4.60;;
1682;SDS011;13252;53.596;10.060;2023-05-10T05:44:20;10.03;;;4.63;;
1682;SDS011;13252;53.596;10.060;2023-05-10T05:46:49;8.47;;;4.80;;
1682;SDS011;13252;53.596;10.060;2023-05-10T05:49:17;6.47;;;5.20;;
1682;SDS011;13252;53.596;10.060;2023-05-10T05:51:45;6.70;;;4.60;;
1682;SDS011;13252;53.596;10.060;2023-05-10T05:54:13;7.47;;;4.23;;
1682;SDS011;13252;53.596;10.060;2023-05-10T05:56:41;7.33;;;5.07;;
1682;SDS011;13252;53.596;10.060;2023-05-10T05:59:10;10.90;;;6.20;;
1682;SDS011;13252;53.596;10.060;2023-05-10T06:01:38;7.27;;;5.10;;
1682;SDS011;13252;53.596;10.060;2023-05-10T06:04:07;5.43;;;4.57;;
1682;SDS011;13252;53.596;10.060;2023-05-10T06:06:35;7.80;;;4.17;;
1682;SDS011;13252;53.596;10.060;2023-05-10T06:09:02;5.70;;;4.67;;
1682;SDS011;13252;53.596;10.060;2023-05-10T06:11:30;6.90;;;4.63;;
1682;SDS011;13252;53.596;10.060;2023-05-10T06:13:58;10.17;;;5.07;;
1682;SDS011;13252;53.596;10.060;2023-05-10T06:16:26;9.43;;;5.40;;
1682;SDS011;13252;53.596;10.060;2023-05-10T06:18:54;6.97;;;4.80;;
1682;SDS011;13252;53.596;10.060;2023-05-10T06:21:24;4.73;;;3.93;;
1682;SDS011;13252;53.596;10.060;2023-05-10T06:23:51;9.13;;;4.83;;
1682;SDS011;13252;53.596;10.060;2023-05-10T06:26:19;11.47;;;4.57;;
1682;SDS011;13252;53.596;10.060;2023-05-10T06:28:50;8.23;;;4.30;;
1682;SDS011;13252;53.596;10.060;2023-05-10T06:31:18;6.30;;;5.40;;
1682;SDS011;13252;53.596;10.060;2023-05-10T06:33:45;8.80;;;4.47;;
1682;SDS011;13252;53.596;10.060;2023-05-10T06:36:17;10.10;;;4.53;;
1682;SDS011;13252;53.596;10.060;2023-05-10T06:38:46;6.80;;;5.23;;
1682;SDS011;13252;53.596;10.060;2023-05-10T06:41:13;5.23;;;4.17;;
1682;SDS011;13252;53.596;10.060;2023-05-10T06:43:41;13.17;;;4.80;;
1682;SDS011;13252;53.596;10.060;2023-05-10T06:46:09;11.23;;;4.63;;
1682;SDS011;13252;53.596;10.060;2023-05-10T06:48:37;5.80;;;4.50;;
1682;SDS011;13252;53.596;10.060;2023-05-10T06:51:05;5.83;;;4.47;;
1682;SDS011;13252;53.596;10.060;2023-05-10T06:53:32;6.63;;;4.50;;
1682;SDS011;13252;53.596;10.060;2023-05-10T06:56:01;5.73;;;4.60;;
1682;SDS011;13252;53.596;10.060;2023-05-10T06:58:30;8.53;;;5.00;;
1682;SDS011;13252;53.596;10.060;2023-05-10T07:01:02;9.63;;;4.60;;
1682;SDS011;13252;53.596;10.060;2023-05-10T07:03:30;11.00;;;5.80;;
1682;SDS011;13252;53.596;10.060;2023-05-10T07:06:01;7.17;;;4.90;;
1682;SDS011;13252;53.596;10.060;2023-05-10T07:08:30;5.40;;;4.37;;
1682;SDS011;13252;53.596;10.060;2023-05-10T07:10:59;8.40;;;5.47;;
1682;SDS011;13252;53.596;10.060;2023-05-10T07:13:29;6.13;;;4.17;;
1682;SDS011;13252;53.596;10.060;2023-05-10T07:15:58;10.30;;;5.13;;
1682;SDS011;13252;53.596;10.060;2023-05-10T07:18:26;6.27;;;4.43;;
1682;SDS011;13252;53.596;10.060;2023-05-10T07:20:54;7.40;;;5.20;;
1682;SDS011;13252;53.596;10.060;2023-05-10T07:23:22;6.50;;;4.50;;
1682;SDS011;13252;53.596;10.060;2023-05-10T07:25:50;6.37;;;4.67;;
1682;SDS011;13252;53.596;10.060;2023-05-10T07:28:20;6.20;;;4.70;;
1682;SDS011;13252;53.596;10.060;2023-05-10T07:30:47;6.03;;;4.13;;
1682;SDS011;13252;53.596;10.060;2023-05-10T07:33:15;5.50;;;4.73;;
1682;SDS011;13252;53.596;10.060;2023-05-10T07:35:43;10.10;;;4.77;;
1682;SDS011;13252;53.596;10.060;2023-05-10T07:38:11;10.57;;;5.57;;
1682;SDS011;13252;53.596;10.060;2023-05-10T07:40:39;6.60;;;5.07;;
1682;SDS011;13252;53.596;10.060;2023-05-10T07:43:07;7.40;;;4.70;;
1682;SDS011;13252;53.596;10.060;2023-05-10T07:45:36;7.83;;;5.00;;
1682;SDS011;13252;53.596;10.060;2023-05-10T07:48:05;8.77;;;4.30;;
1682;SDS011;13252;53.596;10.060;2023-05-10T07:50:33;6.60;;;4.87;;
1682;SDS011;13252;53.596;10.060;2023-05-10T07:53:01;9.67;;;5.47;;
1682;SDS011;13252;53.596;10.060;2023-05-10T07:55:28;9.80;;;5.50;;
1682;SDS011;13252;53.596;10.060;2023-05-10T07:57:56;6.60;;;5.30;;
1682;SDS011;13252;53.596;10.060;2023-05-10T08:00:24;8.33;;;4.00;;
1682;SDS011;13252;53.596;10.060;2023-05-10T08:02:53;5.83;;;4.33;;
1682;SDS011;13252;53.596;10.060;2023-05-10T08:05:21;5.80;;;4.73;;
1682;SDS011;13252;53.596;10.060;2023-05-10T08:07:48;7.30;;;4.40;;
1682;SDS011;13252;53.596;10.060;2023-05-10T08:10:16;7.70;;;4.60;;
1682;SDS011;13252;53.596;10.060;2023-05-10T08:12:44;5.57;;;4.27;;
1682;SDS011;13252;53.596;10.060;2023-05-10T08:15:12;8.70;;;4.83;;
1682;SDS011;13252;53.596;10.060;2023-05-10T08:17:40;8.30;;;5.00;;
1682;SDS011;13252;53.596;10.060;2023-05-10T08:20:11;8.30;;;4.30;;
1682;SDS011;13252;53.596;10.060;2023-05-10T08:22:42;7.60;;;5.33;;
1682;SDS011;13252;53.596;10.060;2023-05-10T08:25:10;7.53;;;5.53;;
1682;SDS011;13252;53.596;10.060;2023-05-10T08:27:38;13.70;;;5.20;;
1682;SDS011;13252;53.596;10.060;2023-05-10T08:30:07;7.13;;;5.03;;
1682;SDS011;13252;53.596;10.060;2023-05-10T08:32:35;6.03;;;4.80;;
1682;SDS011;13252;53.596;10.060;2023-05-10T08:35:04;7.90;;;4.40;;
1682;SDS011;13252;53.596;10.060;2023-05-10T08:37:34;5.47;;;4.30;;
1682;SDS011;13252;53.596;10.060;2023-05-10T08:40:02;10.37;;;4.50;;
1682;SDS011;13252;53.596;10.060;2023-05-10T08:42:30;7.83;;;5.17;;
1682;SDS011;13252;53.596;10.060;2023-05-10T08:45:02;7.70;;;4.83;;
1682;SDS011;13252;53.596;10.060;2023-05-10T08:47:30;11.33;;;4.70;;
1682;SDS011;13252;53.596;10.060;2023-05-10T08:49:58;5.60;;;4.40;;
1682;SDS011;13252;53.596;10.060;2023-05-10T08:52:27;9.40;;;4.67;;
1682;SDS011;13252;53.596;10.060;2023-05-10T08:54:57;11.13;;;5.20;;
1682;SDS011;13252;53.596;10.060;2023-05-10T08:57:25;10.00;;;5.40;;
1682;SDS011;13252;53.596;10.060;2023-05-10T08:59:53;7.83;;;4.30;;
1682;SDS011;13252;53.596;10.060;2023-05-10T09:02:21;6.20;;;4.57;;
1682;SDS011;13252;53.596;10.060;2023-05-10T09:04:50;7.90;;;5.30;;
1682;SDS011;13252;53.596;10.060;2023-05-10T09:07:18;5.60;;;5.00;;
1682;SDS011;13252;53.596;10.060;2023-05-10T09:09:47;6.83;;;4.60;;
1682;SDS011;13252;53.596;10.060;2023-05-10T09:12:16;14.53;;;4.90;;
1682;SDS011;13252;53.596;10.060;2023-05-10T09:14:44;7.70;;;5.90;;
1682;SDS011;13252;53.596;10.060;2023-05-10T09:17:11;8.57;;;4.60;;
1682;SDS011;13252;53.596;10.060;2023-05-10T09:19:40;9.60;;;5.00;;
1682;SDS011;13252;53.596;10.060;2023-05-10T09:22:07;8.07;;;5.73;;
1682;SDS011;13252;53.596;10.060;2023-05-10T09:24:35;11.43;;;6.27;;
1682;SDS011;13252;53.596;10.060;2023-05-10T09:27:08;8.80;;;5.40;;
1682;SDS011;13252;53.596;10.060;2023-05-10T09:29:41;6.80;;;4.67;;
1682;SDS011;13252;53.596;10.060;2023-05-10T09:32:09;9.83;;;5.70;;
1682;SDS011;13252;53.596;10.060;2023-05-10T09:34:39;5.87;;;5.27;;
1682;SDS011;13252;53.596;10.060;2023-05-10T09:37:07;6.50;;;4.93;;
1682;SDS011;13252;53.596;10.060;2023-05-10T09:39:36;8.33;;;6.30;;
1682;SDS011;13252;53.596;10.060;2023-05-10T09:42:06;13.33;;;5.50;;
1682;SDS011;13252;53.596;10.060;2023-05-10T09:44:35;10.23;;;5.27;;
1682;SDS011;13252;53.596;10.060;2023-05-10T09:47:05;6.80;;;5.13;;
1682;SDS011;13252;53.596;10.060;2023-05-10T09:49:33;8.80;;;5.13;;
1682;SDS011;13252;53.596;10.060;2023-05-10T09:52:02;5.97;;;5.00;;
1682;SDS011;13252;53.596;10.060;2023-05-10T09:54:30;10.93;;;6.20;;
1682;SDS011;13252;53.596;10.060;2023-05-10T09:57:02;7.57;;;5.10;;
1682;SDS011;13252;53.596;10.060;2023-05-10T09:59:32;9.30;;;5.23;;
1682;SDS011;13252;53.596;10.060;2023-05-10T10:02:01;9.27;;;6.27;;
1682;SDS011;13252;53.596;10.060;2023-05-10T10:04:30;7.17;;;5.83;;
1682;SDS011;13252;53.596;10.060;2023-05-10T10:06:59;9.30;;;6.17;;
1682;SDS011;13252;53.596;10.060;2023-05-10T10:09:29;7.67;;;5.87;;
1682;SDS011;13252;53.596;10.060;2023-05-10T10:11:56;11.93;;;6.27;;
1682;SDS011;13252;53.596;10.060;2023-05-10T10:14:25;12.23;;;7.00;;
1682;SDS011;13252;53.596;10.060;2023-05-10T10:16:52;9.40;;;6.80;;
1682;SDS011;13252;53.596;10.060;2023-05-10T10:19:34;9.90;;;7.47;;
1682;SDS011;13252;53.596;10.060;2023-05-10T10:22:03;8.77;;;7.87;;
1682;SDS011;13252;53.596;10.060;2023-05-10T10:24:31;14.93;;;8.37;;
1682;SDS011;13252;53.596;10.060;2023-05-10T10:27:01;11.90;;;7.93;;
1682;SDS011;13252;53.596;10.060;2023-05-10T10:29:36;9.77;;;8.30;;
1682;SDS011;13252;53.596;10.060;2023-05-10T10:32:09;8.67;;;7.87;;
1682;SDS011;13252;53.596;10.060;2023-05-10T10:34:41;12.00;;;8.73;;
1682;SDS011;13252;53.596;10.060;2023-05-10T10:37:08;12.40;;;9.30;;
1682;SDS011;13252;53.596;10.060;2023-05-10T10:39:36;9.90;;;8.00;;
1682;SDS011;13252;53.596;10.060;2023-05-10T10:42:04;12.43;;;9.43;;
1682;SDS011;13252;53.596;10.060;2023-05-10T10:44:38;14.00;;;8.90;;
1682;SDS011;13252;53.596;10.060;2023-05-10T10:47:10;10.20;;;8.80;;
1682;SDS011;13252;53.596;10.060;2023-05-10T10:50:03;10.00;;;9.00;;
1682;SDS011;13252;53.596;10.060;2023-05-10T10:52:32;10.03;;;9.03;;
1682;SDS011;13252;53.596;10.060;2023-05-10T10:55:02;10.67;;;9.53;;
1682;SDS011;13252;53.596;10.060;2023-05-10T10:57:32;11.07;;;9.97;;
1682;SDS011;13252;53.596;10.060;2023-05-10T11:02:57;12.90;;;9.37;;
1682;SDS011;13252;53.596;10.060;2023-05-10T11:08:14;14.33;;;10.70;;
1682;SDS011;13252;53.596;10.060;2023-05-10T11:10:49;11.37;;;9.80;;
1682;SDS011;13252;53.596;10.060;2023-05-10T11:13:26;16.17;;;10.80;;
1682;SDS011;13252;53.596;10.060;2023-05-10T11:15:55;10.77;;;9.67;;
1682;SDS011;13252;53.596;10.060;2023-05-10T11:18:24;14.20;;;10.47;;
1682;SDS011;13252;53.596;10.060;2023-05-10T11:20:55;11.43;;;10.33;;
1682;SDS011;13252;53.596;10.060;2023-05-10T11:23:28;13.97;;;10.17;;
1682;SDS011;13252;53.596;10.060;2023-05-10T11:25:57;13.03;;;10.20;;
1682;SDS011;13252;53.596;10.060;2023-05-10T11:28:25;12.83;;;9.93;;
1682;SDS011;13252;53.596;10.060;2023-05-10T11:30:54;11.23;;;8.93;;
1682;SDS011;13252;53.596;10.060;2023-05-10T11:33:22;11.07;;;9.40;;
1682;SDS011;13252;53.596;10.060;2023-05-10T11:35:50;15.30;;;9.80;;
1682;SDS011;13252;53.596;10.060;2023-05-10T11:38:19;11.80;;;10.60;;
1682;SDS011;13252;53.596;10.060;2023-05-10T11:40:46;11.23;;;10.03;;
1682;SDS011;13252;53.596;10.060;2023-05-10T11:43:19;11.00;;;9.87;;
1682;SDS011;13252;53.596;10.060;2023-05-10T11:45:51;12.00;;;10.73;;
1682;SDS011;13252;53.596;10.060;2023-05-10T11:48:19;11.47;;;10.37;;
1682;SDS011;13252;53.596;10.060;2023-05-10T11:50:49;14.40;;;10.57;;
1682;SDS011;13252;53.596;10.060;2023-05-10T11:53:19;16.53;;;10.10;;
1682;SDS011;13252;53.596;10.060;2023-05-10T11:55:48;12.47;;;10.37;;
1682;SDS011;13252;53.596;10.060;2023-05-10T11:58:17;11.57;;;10.47;;
1682;SDS011;13252;53.596;10.060;2023-05-10T12:00:45;13.53;;;12.20;;
1682;SDS011;13252;53.596;10.060;2023-05-10T12:03:13;16.20;;;11.50;;
1682;SDS011;13252;53.596;10.060;2023-05-10T12:05:41;13.97;;;12.30;;
1682;SDS011;13252;53.596;10.060;2023-05-10T12:08:13;14.20;;;12.33;;
1682;SDS011;13252;53.596;10.060;2023-05-10T12:10:42;12.77;;;11.13;;
1682;SDS011;13252;53.596;10.060;2023-05-10T12:13:13;14.53;;;12.13;;
1682;SDS011;13252;53.596;10.060;2023-05-10T12:15:41;15.27;;;12.60;;
1682;SDS011;13252;53.596;10.060;2023-05-10T12:18:09;12.97;;;11.83;;
1682;SDS011;13252;53.596;10.060;2023-05-10T12:20:38;13.77;;;12.50;;
1682;SDS011;13252;53.596;10.060;2023-05-10T12:23:07;13.20;;;11.80;;
1682;SDS011;13252;53.596;10.060;2023-05-10T12:25:36;13.73;;;12.40;;
1682;SDS011;13252;53.596;10.060;2023-05-10T12:28:06;13.57;;;12.33;;
1682;SDS011;13252;53.596;10.060;2023-05-10T12:30:35;14.10;;;12.87;;
1682;SDS011;13252;53.596;10.060;2023-05-10T12:33:07;14.43;;;11.47;;
1682;SDS011;13252;53.596;10.060;2023-05-10T12:35:43;13.40;;;12.00;;
1682;SDS011;13252;53.596;10.060;2023-05-10T12:38:24;14.27;;;12.00;;
1682;SDS011;13252;53.596;10.060;2023-05-10T12:40:57;13.63;;;12.43;;
1682;SDS011;13252;53.596;10.060;2023-05-10T12:43:26;13.90;;;12.60;;
1682;SDS011;13252;53.596;10.060;2023-05-10T12:45:54;15.40;;;13.50;;
1682;SDS011;13252;53.596;10.060;2023-05-10T12:48:22;13.70;;;12.30;;
1682;SDS011;13252;53.596;10.060;2023-05-10T12:50:50;14.13;;;12.83;;
1682;SDS011;13252;53.596;10.060;2023-05-10T12:53:18;13.13;;;11.80;;
1682;SDS011;13252;53.596;10.060;2023-05-10T12:55:46;13.53;;;12.13;;
1682;SDS011;13252;53.596;10.060;2023-05-10T12:58:13;13.07;;;11.80;;
1682;SDS011;13252;53.596;10.060;2023-05-10T13:01:02;13.90;;;12.03;;
1682;SDS011;13252;53.596;10.060;2023-05-10T13:03:31;13.37;;;11.97;;
1682;SDS011;13252;53.596;10.060;2023-05-10T13:05:59;13.13;;;11.10;;
1682;SDS011;13252;53.596;10.060;2023-05-10T13:08:26;14.20;;;10.93;;
1682;SDS011;13252;53.596;10.060;2023-05-10T13:10:55;12.20;;;10.90;;
1682;SDS011;13252;53.596;10.060;2023-05-10T13:13:23;13.03;;;11.10;;
1682;SDS011;13252;53.596;10.060;2023-05-10T13:15:51;11.13;;;8.83;;
1682;SDS011;13252;53.596;10.060;2023-05-10T13:18:20;13.70;;;9.80;;
1682;SDS011;13252;53.596;10.060;2023-05-10T13:20:48;12.20;;;9.87;;
1682;SDS011;13252;53.596;10.060;2023-05-10T13:23:15;10.10;;;9.10;;
1682;SDS011;13252;53.596;10.060;2023-05-10T13:25:43;11.17;;;10.07;;
1682;SDS011;13252;53.596;10.060;2023-05-10T13:28:11;11.50;;;10.30;;
1682;SDS011;13252;53.596;10.060;2023-05-10T13:30:38;10.63;;;9.40;;
1682;SDS011;13252;53.596;10.060;2023-05-10T13:33:06;11.37;;;9.37;;
1682;SDS011;13252;53.596;10.060;2023-05-10T13:35:35;10.80;;;9.20;;
1682;SDS011;13252;53.596;10.060;2023-05-10T13:38:03;9.90;;;8.00;;
1682;SDS011;13252;53.596;10.060;2023-05-10T13:40:34;9.53;;;8.30;;
1682;SDS011;13252;53.596;10.060;2023-05-10T13:43:02;8.07;;;7.27;;
1682;SDS011;13252;53.596;10.060;2023-05-10T13:45:29;7.63;;;6.87;;
1682;SDS011;13252;53.596;10.060;2023-05-10T13:47:57;8.10;;;7.30;;
1682;SDS011;13252;53.596;10.060;2023-05-10T13:50:25;6.90;;;6.20;;
1682;SDS011;13252;53.596;10.060;2023-05-10T13:52:54;7.47;;;6.70;;
1682;SDS011;13252;53.596;10.060;2023-05-10T13:55:22;7.53;;;6.03;;
1682;SDS011;13252;53.596;10.060;2023-05-10T13:57:50;12.87;;;6.87;;
1682;SDS011;13252;53.596;10.060;2023-05-10T14:00:18;9.60;;;8.80;;
1682;SDS011;13252;53.596;10.060;2023-05-10T14:02:46;7.63;;;6.90;;
1682;SDS011;13252;53.596;10.060;2023-05-10T14:05:13;8.93;;;8.03;;
1682;SDS011;13252;53.596;10.060;2023-05-10T14:07:44;10.97;;;9.87;;
1682;SDS011;13252;53.596;10.060;2023-05-10T14:10:13;9.20;;;8.40;;
1682;SDS011;13252;53.596;10.060;2023-05-10T14:12:40;9.60;;;8.70;;
1682;SDS011;13252;53.596;10.060;2023-05-10T14:15:09;9.00;;;8.20;;
1682;SDS011;13252;53.596;10.060;2023-05-10T14:17:37;8.77;;;7.97;;
1682;SDS011;13252;53.596;10.060;2023-05-10T14:20:06;9.10;;;8.13;;
1682;SDS011;13252;53.596;10.060;2023-05-10T14:22:34;8.80;;;8.03;;
1682;SDS011;13252;53.596;10.060;2023-05-10T14:25:02;9.33;;;8.53;;
1682;SDS011;13252;53.596;10.060;2023-05-10T14:27:31;9.30;;;8.40;;
1682;SDS011;13252;53.596;10.060;2023-05-10T14:29:59;9.33;;;8.37;;
1682;SDS011;13252;53.596;10.060;2023-05-10T14:32:27;10.77;;;9.80;;
1682;SDS011;13252;53.596;10.060;2023-05-10T14:34:54;9.67;;;8.77;;
1682;SDS011;13252;53.596;10.060;2023-05-10T14:37:22;9.47;;;8.57;;
1682;SDS011;13252;53.596;10.060;2023-05-10T14:39:50;8.87;;;7.97;;
1682;SDS011;13252;53.596;10.060;2023-05-10T14:42:18;7.80;;;6.60;;
1682;SDS011;13252;53.596;10.060;2023-05-10T14:44:47;7.00;;;6.30;;
1682;SDS011;13252;53.596;10.060;2023-05-10T14:47:15;9.73;;;6.80;;
1682;SDS011;13252;53.596;10.060;2023-05-10T14:49:42;7.63;;;5.80;;
1682;SDS011;13252;53.596;10.060;2023-05-10T14:52:10;6.63;;;5.93;;
1682;SDS011;13252;53.596;10.060;2023-05-10T14:54:38;7.53;;;6.73;;
1682;SDS011;13252;53.596;10.060;2023-05-10T14:57:06;7.00;;;5.97;;
1682;SDS011;13252;53.596;10.060;2023-05-10T14:59:34;6.83;;;6.00;;